Time;durP1;ratioP1;P1;durP2;ratioP2;P2;SDS_P1;SDS_P2;PMS_P1;PMS_P2;Temp;Humidity;BMP_temperature;BMP_pressure;BME280_temperature;BME280_humidity;BME280_pressure;Samples;Min_cycle;Max_cycle;Signal;HPM_P1;HPM_P2
2021/07/14 00:02:12;;;;;;;20.10;17.97;;;;;;;22.77;79.50;98300.13;124776;1090;64259;-79
2021/07/14 00:04:40;;;;;;;19.33;17.47;;;;;;;22.75;79.48;98295.95;124853;1090;64223;-78
2021/07/14 00:07:09;;;;;;;20.80;18.73;;;;;;;22.74;79.56;98303.23;124807;1090;64237;-78
2021/07/14 00:09:36;;;;;;;20.83;19.03;;;;;;;22.74;79.60;98299.69;124897;1090;64351;-79
2021/07/14 00:12:06;;;;;;;20.83;18.80;;;;;;;22.71;79.64;98305.53;124834;1090;64307;-79
2021/07/14 00:22:41;;;;;;;20.83;17.97;;;;;;;22.52;79.70;98297.02;124787;1090;65525;-79
2021/07/14 00:25:12;;;;;;;20.00;17.90;;;;;;;22.52;79.97;98301.63;124843;1091;64326;-79
2021/07/14 00:27:42;;;;;;;19.60;17.53;;;;;;;22.47;79.92;98296.77;124808;1090;64341;-79
2021/07/14 00:30:15;;;;;;;19.70;17.80;;;;;;;22.45;79.93;98293.41;124792;1090;64281;-79
2021/07/14 00:32:42;;;;;;;19.40;17.45;;;;;;;22.44;80.12;98293.62;124877;1090;64258;-79
2021/07/14 00:35:12;;;;;;;20.00;17.73;;;;;;;22.41;80.44;98302.98;124778;1090;64281;-80
2021/07/14 00:37:39;;;;;;;20.27;18.13;;;;;;;22.39;80.63;98305.05;124862;1090;64270;-80
2021/07/14 00:40:09;;;;;;;21.53;19.43;;;;;;;22.36;81.30;98297.30;124799;1090;64625;-79
2021/07/14 00:42:37;;;;;;;20.73;18.70;;;;;;;22.31;81.08;98303.31;124826;1090;64265;-80
2021/07/14 00:45:06;;;;;;;21.03;18.93;;;;;;;22.30;81.24;98303.49;124799;1088;64239;-79
2021/07/14 00:47:35;;;;;;;22.40;20.03;;;;;;;22.30;81.46;98306.20;124836;1090;64278;-79
2021/07/14 00:50:06;;;;;;;26.27;21.23;;;;;;;22.27;81.17;98310.15;124769;1090;64213;-79
2021/07/14 00:52:33;;;;;;;25.77;21.17;;;;;;;22.27;81.31;98310.15;124851;1090;64361;-79
2021/07/14 00:55:00;;;;;;;23.10;20.93;;;;;;;22.27;81.67;98307.44;124827;1090;64265;-79
2021/07/14 00:57:29;;;;;;;24.53;21.80;;;;;;;22.25;81.66;98301.39;124797;1090;64280;-79
2021/07/14 00:59:57;;;;;;;26.97;21.60;;;;;;;22.24;82.19;98302.41;124765;1090;64267;-79
2021/07/14 01:02:26;;;;;;;23.07;20.70;;;;;;;22.23;81.88;98305.33;124856;1090;64238;-79
2021/07/14 01:05:00;;;;;;;25.23;22.53;;;;;;;22.21;82.21;98305.52;124827;1090;64277;-79
2021/07/14 01:07:56;;;;;;;24.30;21.70;;;;;;;22.18;82.38;98307.75;124824;1090;64268;-79
2021/07/14 01:10:30;;;;;;;23.53;21.30;;;;;;;22.14;82.55;98310.86;124785;1090;64338;-79
2021/07/14 01:13:24;;;;;;;23.47;21.07;;;;;;;22.13;82.58;98319.17;124775;1090;64300;-79
2021/07/14 01:16:07;;;;;;;22.07;19.70;;;;;;;22.13;82.79;98320.02;124796;1090;64261;-79
2021/07/14 01:19:10;;;;;;;24.47;20.67;;;;;;;22.13;82.81;98311.04;124867;1090;64300;-79
2021/07/14 01:21:42;;;;;;;23.63;20.87;;;;;;;22.10;82.60;98308.72;124764;1093;64355;-79
2021/07/14 01:24:12;;;;;;;23.70;20.40;;;;;;;22.10;82.77;98317.69;124874;1090;64270;-79
2021/07/14 01:27:14;;;;;;;23.53;21.03;;;;;;;22.09;83.15;98312.45;124781;1090;64367;-79
2021/07/14 01:29:57;;;;;;;23.67;21.27;;;;;;;22.09;83.29;98312.45;124810;1090;64280;-80
2021/07/14 01:32:29;;;;;;;24.23;21.87;;;;;;;22.06;83.52;98323.69;124831;1090;64281;-80
2021/07/14 01:35:12;;;;;;;23.33;21.00;;;;;;;22.04;83.75;98328.49;124814;1090;64245;-80
2021/07/14 01:37:45;;;;;;;24.17;21.60;;;;;;;22.00;83.77;98317.16;124814;1090;64219;-78
2021/07/14 01:40:15;;;;;;;23.37;21.07;;;;;;;21.99;84.03;98328.23;124913;1090;64419;-79
2021/07/14 01:42:46;;;;;;;23.30;20.77;;;;;;;21.97;83.89;98322.98;124871;1090;64261;-78
2021/07/14 01:45:14;;;;;;;22.03;19.87;;;;;;;21.97;84.46;98322.98;124843;1090;64364;-78
2021/07/14 01:47:43;;;;;;;23.83;21.40;;;;;;;21.94;84.06;98319.82;124979;1090;64239;-78
2021/07/14 01:50:12;;;;;;;22.43;20.23;;;;;;;21.92;84.07;98317.28;124814;1090;64281;-79
2021/07/14 01:52:40;;;;;;;22.75;20.45;;;;;;;21.91;84.60;98311.02;124819;1090;64300;-79
2021/07/14 01:55:09;;;;;;;23.30;21.00;;;;;;;21.88;84.34;98314.13;124910;1090;64286;-78
2021/07/14 01:57:38;;;;;;;23.20;20.80;;;;;;;21.89;84.37;98323.10;124826;1090;64181;-78
2021/07/14 02:00:28;;;;;;;22.77;20.47;;;;;;;21.89;84.27;98321.22;124872;1090;64262;-79
2021/07/14 02:03:39;;;;;;;22.63;20.23;;;;;;;21.87;84.31;98320.56;124792;1090;64259;-79
2021/07/14 02:06:05;;;;;;;21.60;19.47;;;;;;;21.86;84.64;98313.47;124788;1089;64441;-79
2021/07/14 02:08:37;;;;;;;21.47;19.43;;;;;;;21.87;84.40;98311.59;124883;1090;64416;-78
2021/07/14 02:11:05;;;;;;;24.07;19.83;;;;;;;21.87;84.39;98311.59;124839;1090;64210;-78
2021/07/14 02:13:35;;;;;;;23.20;19.90;;;;;;;21.84;84.44;98312.81;124813;1090;64265;-78
2021/07/14 02:16:05;;;;;;;22.07;19.97;;;;;;;21.83;84.55;98316.58;124815;1090;64273;-79
2021/07/14 02:18:41;;;;;;;23.47;19.63;;;;;;;21.81;84.42;98310.49;124821;1090;64364;-78
2021/07/14 02:21:08;;;;;;;22.07;19.80;;;;;;;;;;124772;1090;64502;-79
2021/07/14 02:23:36;;;;;;;22.10;20.03;;;;;;;21.80;84.37;98314.25;124811;1088;64262;-78
2021/07/14 02:26:05;;;;;;;20.73;18.93;;;;;;;21.79;84.39;98312.55;124833;1090;64261;-78
2021/07/14 02:28:32;;;;;;;19.23;17.60;;;;;;;21.78;84.30;98304.62;124886;1090;64210;-78
2021/07/14 02:30:59;;;;;;;20.03;18.20;;;;;;;21.75;84.44;98308.55;124890;1090;64316;-78
2021/07/14 02:33:27;;;;;;;20.27;17.53;;;;;;;21.75;84.36;98307.69;124855;1090;64332;-78
2021/07/14 02:35:59;;;;;;;21.23;19.07;;;;;;;21.75;84.39;98305.84;124891;1090;64281;-78
2021/07/14 02:38:35;;;;;;;21.63;19.53;;;;;;;21.75;84.40;98311.27;124834;1090;64287;-78
2021/07/14 02:41:11;;;;;;;19.47;17.50;;;;;;;21.74;84.16;98306.85;124791;1089;64184;-78
2021/07/14 02:43:44;;;;;;;19.83;18.13;;;;;;;21.73;84.21;98316.03;124796;1090;64290;-78
2021/07/14 02:46:14;;;;;;;20.53;18.37;;;;;;;21.74;84.33;98312.28;124796;1090;64300;-79
2021/07/14 02:48:46;;;;;;;19.43;17.57;;;;;;;21.75;84.32;98304.97;124833;1090;64762;-78
2021/07/14 02:51:15;;;;;;;20.30;18.03;;;;;;;21.78;84.00;98310.05;124834;1090;64281;-79
2021/07/14 02:53:47;;;;;;;21.38;19.05;;;;;;;21.76;84.17;98304.80;124882;1090;64272;-78
2021/07/14 02:56:19;;;;;;;18.37;16.80;;;;;;;21.76;84.23;98299.38;124804;1090;64281;-78
2021/07/14 02:58:52;;;;;;;20.33;18.27;;;;;;;21.77;83.84;98294.78;124828;1090;64431;-78
2021/07/14 03:01:21;;;;;;;22.40;17.90;;;;;;;21.77;83.91;98300.20;124829;1090;64281;-78
2021/07/14 03:03:51;;;;;;;20.13;18.23;;;;;;;21.78;83.79;98302.73;124854;1089;64207;-78
2021/07/14 03:06:20;;;;;;;19.47;17.60;;;;;;;21.80;83.79;98299.81;124812;1089;64307;-77
2021/07/14 03:08:50;;;;;;;20.07;18.17;;;;;;;21.82;83.82;98297.77;124833;1090;64278;-78
2021/07/14 03:11:18;;;;;;;20.18;18.28;;;;;;;21.85;83.81;98305.52;124776;1090;64274;-78
2021/07/14 03:13:47;;;;;;;19.93;18.03;;;;;;;21.83;83.84;98294.88;124828;1090;64322;-78
2021/07/14 03:16:17;;;;;;;19.77;18.07;;;;;;;21.86;83.87;98301.78;124901;1090;64271;-79
2021/07/14 03:18:48;;;;;;;19.50;17.50;;;;;;;21.90;83.52;98284.91;124791;1090;64204;-78
2021/07/14 03:21:15;;;;;;;18.90;17.15;;;;;;;21.97;83.64;98284.16;124785;1090;64753;-78
2021/07/14 03:23:44;;;;;;;19.33;17.43;;;;;;;21.99;83.36;98291.08;124791;1090;64389;-78
2021/07/14 03:26:12;;;;;;;18.83;16.87;;;;;;;22.03;83.22;98300.49;124793;1090;64354;-78
2021/07/14 03:28:40;;;;;;;18.93;17.13;;;;;;;22.07;82.97;98304.52;124813;1090;64332;-78
2021/07/14 03:31:12;;;;;;;20.47;18.30;;;;;;;22.14;82.91;98304.56;124895;1090;64284;-78
2021/07/14 03:33:40;;;;;;;18.75;17.00;;;;;;;22.25;82.83;98300.52;124787;1090;64417;-78
2021/07/14 03:36:08;;;;;;;20.67;18.57;;;;;;;22.29;82.60;98305.38;124814;1090;64399;-78
2021/07/14 03:38:35;;;;;;;20.50;18.40;;;;;;;;;;124804;1090;64284;-79
2021/07/14 03:41:04;;;;;;;19.07;17.03;;;;;;;22.45;82.14;98315.13;124785;1090;64361;-78
2021/07/14 03:43:32;;;;;;;19.20;17.30;;;;;;;22.53;81.84;98314.15;124875;1090;64322;-78
2021/07/14 03:46:03;;;;;;;18.73;17.00;;;;;;;22.59;81.66;98326.94;124909;1090;64770;-78
2021/07/14 03:48:32;;;;;;;18.67;16.87;;;;;;;22.70;81.52;98331.02;124925;1090;64361;-79
2021/07/14 03:51:01;;;;;;;18.63;16.83;;;;;;;22.85;81.33;98330.91;124946;1089;64280;-78
2021/07/14 03:53:31;;;;;;;17.67;16.07;;;;;;;22.95;80.97;98321.37;124892;1090;64243;-78
2021/07/14 03:55:58;;;;;;;18.87;16.90;;;;;;;23.12;80.48;98319.23;124910;1090;64262;-78
2021/07/14 03:58:27;;;;;;;20.07;18.10;;;;;;;23.22;80.17;98319.71;124890;1090;64219;-78
2021/07/14 04:00:54;;;;;;;20.40;18.60;;;;;;;23.35;79.88;98307.20;124895;1089;64530;-78
2021/07/14 04:03:27;;;;;;;19.27;17.37;;;;;;;23.50;79.53;98307.08;124837;1090;64306;-79
2021/07/14 04:06:03;;;;;;;19.20;17.20;;;;;;;23.67;79.28;98305.67;124874;1090;64317;-79
2021/07/14 04:08:40;;;;;;;19.53;16.80;;;;;;;23.90;78.70;98309.98;124810;1090;64296;-79
2021/07/14 04:11:07;;;;;;;19.07;17.33;;;;;;;24.08;78.11;98308.34;124852;1090;64284;-79
2021/07/14 04:13:34;;;;;;;19.40;17.47;;;;;;;24.25;77.41;98303.36;124800;1090;64322;-79
2021/07/14 04:16:02;;;;;;;20.50;18.55;;;;;;;24.44;77.07;98299.01;124792;1090;64281;-79
2021/07/14 04:19:00;;;;;;;19.50;17.60;;;;;;;24.64;76.42;98306.33;124824;1090;64306;-79
2021/07/14 04:21:27;;;;;;;19.03;17.17;;;;;;;24.76;75.91;98293.77;124769;1090;64246;-79
2021/07/14 04:23:56;;;;;;;20.87;17.83;;;;;;;24.87;75.41;98305.91;124771;1090;64257;-79
2021/07/14 04:26:24;;;;;;;17.75;16.05;;;;;;;24.91;74.78;98299.83;124835;1090;64306;-79
2021/07/14 04:28:53;;;;;;;16.20;14.77;;;;;;;24.97;74.66;98301.70;124824;1090;64287;-79
2021/07/14 04:31:20;;;;;;;18.33;16.53;;;;;;;25.05;74.18;98310.71;124840;1089;64284;-79
2021/07/14 04:33:47;;;;;;;18.97;17.13;;;;;;;25.14;74.16;98301.23;124903;1090;64310;-79
2021/07/14 04:36:14;;;;;;;18.23;16.50;;;;;;;25.31;73.22;98301.66;124839;1089;64268;-79
2021/07/14 04:38:42;;;;;;;19.00;17.10;;;;;;;25.45;73.06;98295.09;124794;1090;64772;-79
2021/07/14 04:41:09;;;;;;;18.07;16.23;;;;;;;25.68;72.72;98300.05;124769;1090;64303;-79
2021/07/14 04:43:36;;;;;;;18.73;16.70;;;;;;;25.90;72.63;98299.77;124802;1090;64261;-79
2021/07/14 04:46:03;;;;;;;18.20;16.55;;;;;;;26.12;71.74;98302.98;124805;1089;64265;-79
2021/07/14 04:48:30;;;;;;;18.90;16.97;;;;;;;26.31;71.18;98298.47;124824;1090;64367;-79
2021/07/14 04:50:57;;;;;;;19.33;17.57;;;;;;;26.48;71.22;98302.31;124870;1090;64312;-79
2021/07/14 04:53:24;;;;;;;19.40;17.70;;;;;;;26.76;70.75;98293.71;124812;1088;64210;-79
2021/07/14 04:55:52;;;;;;;19.23;17.50;;;;;;;27.01;70.12;98293.66;124812;1090;64262;-79
2021/07/14 04:58:20;;;;;;;18.17;16.40;;;;;;;27.18;68.53;98288.49;124783;1090;64303;-79
2021/07/14 05:00:47;;;;;;;20.07;18.13;;;;;;;27.26;68.83;98284.63;124772;1090;64421;-79
2021/07/14 05:03:14;;;;;;;19.50;17.60;;;;;;;27.34;67.80;98276.94;124793;1090;64319;-79
2021/07/14 05:05:41;;;;;;;18.47;16.87;;;;;;;27.34;67.35;98270.63;124797;1090;64210;-79
2021/07/14 05:08:08;;;;;;;18.00;16.65;;;;;;;27.37;67.44;98272.91;124819;1090;64191;-79
2021/07/14 05:10:38;;;;;;;18.60;16.90;;;;;;;27.50;66.29;98267.27;124813;1090;64277;-79
2021/07/14 05:13:05;;;;;;;19.20;17.43;;;;;;;27.58;66.65;98263.39;124872;1090;64358;-79
2021/07/14 05:15:32;;;;;;;17.73;16.33;;;;;;;27.67;66.10;98274.84;124873;1090;64361;-78
2021/07/14 05:18:00;;;;;;;17.90;16.50;;;;;;;27.80;65.80;98260.98;124857;1090;64284;-79
2021/07/14 05:20:28;;;;;;;17.70;16.20;;;;;;;27.91;65.70;98264.86;124831;1090;64184;-79
2021/07/14 05:22:55;;;;;;;18.17;16.57;;;;;;;27.96;65.04;98243.95;124811;1090;64261;-78
2021/07/14 05:25:23;;;;;;;19.30;17.60;;;;;;;27.90;64.73;98257.72;124771;1090;64354;-78
2021/07/14 05:27:50;;;;;;;19.60;17.87;;;;;;;27.93;65.24;98255.34;124802;1090;64319;-79
2021/07/14 05:30:18;;;;;;;19.10;17.37;;;;;;;28.14;65.39;98251.23;124881;1090;64284;-79
2021/07/14 05:32:45;;;;;;;19.65;17.65;;;;;;;28.30;64.59;98249.72;124888;1090;64261;-79
2021/07/14 05:35:12;;;;;;;18.23;16.60;;;;;;;28.29;64.54;98252.72;124865;1090;64262;-79
2021/07/14 05:37:39;;;;;;;18.63;16.87;;;;;;;28.23;63.42;98260.81;124803;1090;64280;-79
2021/07/14 05:40:09;;;;;;;20.63;18.40;;;;;;;28.06;63.68;98245.27;124821;1090;65479;-78
2021/07/14 05:42:36;;;;;;;18.33;16.65;;;;;;;28.00;63.69;98261.56;124835;1090;64297;-78
2021/07/14 05:45:04;;;;;;;17.90;16.40;;;;;;;27.96;64.09;98268.59;124819;1090;64291;-78
2021/07/14 05:47:31;;;;;;;18.90;17.20;;;;;;;28.09;64.33;98266.71;124817;1090;64256;-78
2021/07/14 05:49:58;;;;;;;18.67;16.97;;;;;;;28.35;63.86;98270.95;124771;1090;64277;-78
2021/07/14 05:52:25;;;;;;;18.33;16.63;;;;;;;28.60;63.61;98277.11;124830;1090;64233;-78
2021/07/14 05:54:53;;;;;;;18.10;16.45;;;;;;;28.81;62.99;98278.44;124764;1090;64285;-78
2021/07/14 05:57:20;;;;;;;18.87;17.37;;;;;;;28.88;62.44;98275.56;124803;1090;64262;-78
2021/07/14 05:59:47;;;;;;;18.20;16.60;;;;;;;28.95;62.65;98272.70;124895;1090;64281;-78
2021/07/14 06:02:15;;;;;;;19.20;17.40;;;;;;;29.19;62.83;98284.53;124858;1090;64342;-78
2021/07/14 06:04:42;;;;;;;19.07;17.37;;;;;;;29.42;61.92;98298.22;124763;1090;64318;-79
2021/07/14 06:07:09;;;;;;;17.70;16.10;;;;;;;29.66;61.23;98292.70;124764;1090;64284;-79
2021/07/14 06:09:39;;;;;;;19.00;17.03;;;;;;;29.90;61.45;98299.77;124821;1090;64207;-79
2021/07/14 06:12:07;;;;;;;17.63;15.73;;;;;;;30.22;60.59;98301.19;124825;1090;64310;-79
2021/07/14 06:14:36;;;;;;;18.27;16.63;;;;;;;30.43;59.91;98294.17;124892;1090;64283;-79
2021/07/14 06:17:04;;;;;;;17.68;15.98;;;;;;;30.70;59.48;98291.59;124792;1090;64277;-79
2021/07/14 06:19:32;;;;;;;17.80;16.20;;;;;;;30.96;59.08;98284.61;124812;1090;64188;-78
2021/07/14 06:22:01;;;;;;;17.43;15.83;;;;;;;31.12;59.13;98280.16;125002;1090;64287;-79
2021/07/14 06:24:29;;;;;;;;;;;;;;;31.25;57.50;98288.05;124925;1090;64277;-79
2021/07/14 06:26:56;;;;;;;16.07;14.70;;;;;;;31.19;58.27;98283.57;124803;1090;64262;-79
2021/07/14 06:29:23;;;;;;;17.63;16.23;;;;;;;31.26;57.57;98279.55;124807;1090;64415;-79
2021/07/14 06:31:51;;;;;;;17.73;16.23;;;;;;;31.36;57.10;98291.77;124795;1089;64187;-79
2021/07/14 06:34:18;;;;;;;19.13;16.80;;;;;;;31.57;57.19;98292.91;124797;1090;64238;-79
2021/07/14 06:36:46;;;;;;;16.83;15.23;;;;;;;31.81;56.93;98291.58;124793;1090;64261;-79
2021/07/14 06:39:13;;;;;;;16.70;15.30;;;;;;;32.04;56.22;98289.63;124794;1090;64433;-79
2021/07/14 06:41:40;;;;;;;18.07;16.47;;;;;;;32.08;56.32;98288.86;124794;1089;64329;-79
2021/07/14 06:44:07;;;;;;;15.93;14.53;;;;;;;32.19;55.63;98292.55;124771;1090;65547;-79
2021/07/14 06:46:35;;;;;;;17.23;15.53;;;;;;;32.31;55.18;98292.41;124826;1090;64264;-80
2021/07/14 06:49:02;;;;;;;16.77;15.07;;;;;;;32.33;54.81;98296.57;124861;1090;64280;-78
2021/07/14 06:51:30;;;;;;;17.95;16.15;;;;;;;32.21;53.94;98300.58;124850;1090;64391;-78
2021/07/14 06:53:57;;;;;;;17.60;15.80;;;;;;;32.26;54.38;98300.63;124774;1090;64287;-78
2021/07/14 06:56:24;;;;;;;18.03;16.40;;;;;;;32.38;54.17;98306.80;124807;1093;64355;-78
2021/07/14 06:58:51;;;;;;;16.70;15.33;;;;;;;32.54;54.06;98307.80;124809;1089;64281;-78
2021/07/14 07:01:20;;;;;;;18.27;16.63;;;;;;;32.76;53.70;98316.01;124796;1090;64270;-79
2021/07/14 07:03:47;;;;;;;18.35;16.70;;;;;;;32.82;53.68;98311.36;124794;1090;64284;-79
2021/07/14 07:06:14;;;;;;;17.17;15.47;;;;;;;32.91;52.88;98315.27;124809;1090;64418;-79
2021/07/14 07:08:42;;;;;;;17.93;16.40;;;;;;;32.96;52.80;98309.80;124832;1090;64265;-79
2021/07/14 07:11:09;;;;;;;17.37;15.73;;;;;;;33.01;52.74;98315.38;124787;1090;64356;-79
2021/07/14 07:13:36;;;;;;;22.10;16.37;;;;;;;32.97;52.36;98306.78;124819;1090;64236;-79
2021/07/14 07:16:04;;;;;;;16.80;15.37;;;;;;;33.02;52.12;98300.50;124761;1090;64268;-79
2021/07/14 07:18:31;;;;;;;17.53;16.03;;;;;;;32.91;51.88;98305.06;124799;1089;64242;-79
2021/07/14 07:20:58;;;;;;;18.63;16.77;;;;;;;32.98;51.52;98294.63;124784;1090;64287;-79
2021/07/14 07:23:25;;;;;;;16.93;15.20;;;;;;;33.05;51.91;98299.14;124795;1090;64191;-78
2021/07/14 07:25:54;;;;;;;18.63;16.87;;;;;;;32.92;51.58;98292.94;124798;1090;64734;-79
2021/07/14 07:28:26;;;;;;;;;;;;;;;33.00;51.71;98294.38;124845;1090;64261;-79
2021/07/14 07:30:54;;;;;;;17.77;15.97;;;;;;;32.98;51.37;98297.39;124793;1090;64424;-79
2021/07/14 07:33:21;;;;;;;18.20;16.53;;;;;;;32.92;52.35;98295.70;124804;1090;64284;-79
2021/07/14 07:35:49;;;;;;;19.83;16.17;;;;;;;32.90;52.22;98303.41;124872;1090;64220;-78
2021/07/14 07:38:16;;;;;;;19.00;17.03;;;;;;;32.87;52.05;98294.84;124837;1090;64361;-78
2021/07/14 07:40:43;;;;;;;17.47;15.80;;;;;;;32.88;52.03;98296.48;124776;1090;64189;-78
2021/07/14 07:43:10;;;;;;;18.30;16.63;;;;;;;32.96;51.86;98302.34;124812;1090;64234;-80
2021/07/14 07:45:39;;;;;;;17.85;16.30;;;;;;;33.04;51.92;98300.22;124822;1090;64361;-79
2021/07/14 07:48:06;;;;;;;18.67;17.03;;;;;;;33.12;51.58;98302.48;124793;1093;64329;-79
2021/07/14 07:50:33;;;;;;;19.40;17.60;;;;;;;33.16;51.67;98307.21;124782;1090;64270;-79
2021/07/14 07:53:00;;;;;;;19.63;17.83;;;;;;;33.14;51.45;98303.05;124780;1093;64214;-79
2021/07/14 07:55:28;;;;;;;18.95;17.15;;;;;;;33.18;51.88;98305.02;124796;1091;64339;-79
2021/07/14 07:57:55;;;;;;;19.07;17.47;;;;;;;33.12;51.66;98308.00;124801;1091;64287;-79
2021/07/14 08:00:22;;;;;;;19.17;17.27;;;;;;;33.17;51.81;98316.32;124791;1090;64298;-78
2021/07/14 08:02:49;;;;;;;18.10;16.63;;;;;;;33.30;51.01;98307.56;124790;1091;64287;-79
2021/07/14 08:05:17;;;;;;;18.65;16.65;;;;;;;33.38;51.77;98298.77;124791;1090;64210;-79
2021/07/14 08:07:44;;;;;;;18.90;17.00;;;;;;;33.47;51.83;98307.39;124803;1093;64409;-79
2021/07/14 08:10:12;;;;;;;17.07;15.67;;;;;;;33.52;51.61;98303.80;124767;1090;64309;-79
2021/07/14 08:12:41;;;;;;;18.73;17.00;;;;;;;33.65;51.73;98312.48;124771;1090;64742;-79
2021/07/14 08:15:10;;;;;;;16.70;15.35;;;;;;;33.75;51.18;98321.91;124760;1093;64291;-79
2021/07/14 08:17:37;;;;;;;18.40;16.83;;;;;;;33.54;50.62;98321.80;124809;1090;64319;-79
2021/07/14 08:20:08;;;;;;;18.97;17.17;;;;;;;33.43;50.47;98331.12;124784;1093;64351;-79
2021/07/14 08:22:35;;;;;;;17.87;16.27;;;;;;;33.28;50.90;98328.27;124819;1091;64338;-79
2021/07/14 08:25:08;;;;;;;17.75;16.35;;;;;;;33.27;51.55;98326.61;124815;1090;64363;-79
2021/07/14 08:27:36;;;;;;;18.30;16.60;;;;;;;33.30;51.76;98337.95;124840;1090;64287;-79
2021/07/14 08:30:06;;;;;;;17.73;16.25;;;;;;;33.36;51.02;98342.42;124828;1090;64280;-79
2021/07/14 08:32:34;;;;;;;19.50;17.63;;;;;;;33.40;50.71;98345.47;124830;1093;64326;-79
2021/07/14 08:35:01;;;;;;;18.33;16.83;;;;;;;33.49;50.72;98352.14;124805;1091;64265;-79
2021/07/14 08:37:28;;;;;;;18.50;16.77;;;;;;;33.55;50.96;98356.65;124799;1090;64338;-79
2021/07/14 08:39:56;;;;;;;18.87;17.27;;;;;;;33.68;51.28;98347.05;124817;1093;64287;-79
2021/07/14 08:42:25;;;;;;;18.67;16.97;;;;;;;33.86;51.17;98351.25;124743;1090;64664;-79
2021/07/14 08:44:54;;;;;;;18.73;16.30;;;;;;;34.16;50.95;98358.05;124860;1090;64303;-80
2021/07/14 08:47:22;;;;;;;18.97;17.17;;;;;;;34.37;50.65;98354.22;124821;1090;64220;-80
2021/07/14 08:49:51;;;;;;;18.50;16.73;;;;;;;34.72;50.66;98364.52;124861;1093;64281;-79
2021/07/14 08:52:19;;;;;;;18.63;16.63;;;;;;;35.08;49.79;98360.98;124902;1091;64293;-79
2021/07/14 08:54:46;;;;;;;20.50;16.00;;;;;;;35.40;48.52;98364.24;124893;1090;64264;-78
2021/07/14 08:57:16;;;;;;;17.93;16.33;;;;;;;35.65;48.33;98359.77;125230;1090;64334;-78
2021/07/14 08:59:45;;;;;;;16.60;14.90;;;;;;;35.83;48.30;98366.64;125242;1090;64276;-79
2021/07/14 09:02:15;;;;;;;15.00;13.80;;;;;;;35.94;47.33;98356.33;125266;1090;64284;-79
2021/07/14 09:04:43;;;;;;;14.50;13.40;;;;;;;35.79;46.86;98366.39;124766;1090;64331;-80
2021/07/14 09:07:10;;;;;;;14.97;13.57;;;;;;;35.66;47.31;98369.77;124797;1091;64265;-79
2021/07/14 09:09:38;;;;;;;15.07;13.30;;;;;;;35.51;46.03;98372.53;124789;1091;64396;-79
2021/07/14 09:12:11;;;;;;;17.13;14.27;;;;;;;35.36;45.86;98371.47;124806;1090;64280;-81
2021/07/14 09:14:43;;;;;;;17.07;14.37;;;;;;;35.32;46.12;98375.08;124798;1091;64287;-79
2021/07/14 09:17:19;;;;;;;15.50;14.20;;;;;;;35.57;45.75;98379.72;124786;1093;64223;-79
2021/07/14 09:19:46;;;;;;;16.13;14.43;;;;;;;35.68;45.66;98377.78;124770;1091;64264;-79
2021/07/14 09:22:22;;;;;;;14.13;12.83;;;;;;;35.83;46.27;98380.50;124795;1091;64332;-78
2021/07/14 09:24:51;;;;;;;14.27;12.87;;;;;;;35.85;45.62;98377.46;124814;1091;64210;-78
2021/07/14 09:27:19;;;;;;;;;;;;;;;35.89;45.66;98367.45;124858;1093;64273;-80
2021/07/14 09:30:07;;;;;;;14.73;13.30;;;;;;;35.96;45.63;98366.03;124810;1090;64268;-78
2021/07/14 09:32:52;;;;;;;14.00;12.83;;;;;;;36.23;45.41;98375.92;124781;1093;64303;-79
2021/07/14 09:35:26;;;;;;;13.85;12.75;;;;;;;36.47;45.02;98367.76;124813;1093;64347;-79
2021/07/14 09:37:55;;;;;;;13.43;12.27;;;;;;;36.61;44.52;98365.19;124775;1090;64299;-79
2021/07/14 09:40:23;;;;;;;14.47;13.17;;;;;;;36.75;44.50;98371.73;124913;1091;64287;-79
2021/07/14 09:42:57;;;;;;;16.63;15.03;;;;;;;36.78;43.98;98376.70;124868;1092;64268;-79
2021/07/14 09:45:56;;;;;;;28.30;16.73;;;;;;;36.54;43.43;98398.78;124855;1093;64403;-79
2021/07/14 09:48:29;;;;;;;25.67;15.73;;;;;;;35.61;43.52;98405.81;124832;1093;64441;-78
2021/07/14 09:50:58;;;;;;;15.90;14.67;;;;;;;34.99;44.23;98426.29;124787;1092;64265;-79
2021/07/14 09:53:28;;;;;;;23.07;16.90;;;;;;;34.50;45.05;98427.58;124872;1091;64644;-79
2021/07/14 09:56:10;;;;;;;17.90;16.20;;;;;;;34.27;46.26;98426.94;124864;1093;64316;-79
2021/07/14 09:58:38;;;;;;;23.00;16.87;;;;;;;34.17;46.72;98431.60;124766;1093;64300;-79
2021/07/14 10:01:06;;;;;;;18.45;16.20;;;;;;;34.02;47.11;98432.32;124800;1093;64339;-78
2021/07/14 10:03:38;;;;;;;23.00;16.37;;;;;;;33.86;47.09;98428.65;124807;1093;64273;-79
2021/07/14 10:06:11;;;;;;;18.60;16.73;;;;;;;33.78;47.78;98416.20;124804;1093;64267;-79
2021/07/14 10:09:03;;;;;;;17.93;16.07;;;;;;;33.75;47.66;98419.47;124825;1093;64284;-79
2021/07/14 10:11:32;;;;;;;18.83;15.43;;;;;;;33.67;47.05;98425.51;124779;1093;64188;-79
2021/07/14 10:14:04;;;;;;;18.17;15.60;;;;;;;33.55;47.80;98428.48;124872;1093;64153;-79
2021/07/14 10:16:36;;;;;;;17.03;15.30;;;;;;;33.36;47.29;98425.29;124841;1093;64290;-79
2021/07/14 10:19:12;;;;;;;16.95;15.10;;;;;;;33.23;47.90;98423.81;124793;1092;64268;-80
2021/07/14 10:21:42;;;;;;;16.90;15.00;;;;;;;33.22;47.84;98422.13;124800;1093;64225;-79
2021/07/14 10:24:12;;;;;;;20.27;14.83;;;;;;;33.20;48.01;98424.34;124828;1093;64264;-79
2021/07/14 10:26:46;;;;;;;17.13;15.37;;;;;;;33.23;48.76;98417.46;124820;1090;64153;-78
2021/07/14 10:29:18;;;;;;;21.20;15.25;;;;;;;33.26;48.89;98421.59;124826;1090;64287;-78
2021/07/14 10:31:50;;;;;;;17.07;15.27;;;;;;;33.28;48.81;98411.95;124808;1090;64268;-78
2021/07/14 10:34:20;;;;;;;16.30;14.70;;;;;;;33.49;48.33;98409.33;124795;1090;64306;-78
2021/07/14 10:36:51;;;;;;;17.70;15.83;;;;;;;33.68;49.07;98409.75;124815;1090;64291;-78
2021/07/14 10:39:21;;;;;;;17.23;15.40;;;;;;;33.68;47.92;98406.98;124841;1090;64277;-79
2021/07/14 10:41:49;;;;;;;16.33;14.73;;;;;;;33.70;48.21;98410.33;124765;1090;64293;-78
2021/07/14 10:44:19;;;;;;;18.40;15.73;;;;;;;33.55;48.32;98406.38;124851;1093;64347;-79
2021/07/14 10:46:47;;;;;;;17.87;15.60;;;;;;;33.43;48.85;98401.01;124880;1091;64271;-80
2021/07/14 10:49:17;;;;;;;17.33;15.67;;;;;;;33.39;49.25;98402.66;124833;1091;64290;-80
2021/07/14 10:51:44;;;;;;;18.73;15.17;;;;;;;33.44;48.90;98402.69;124806;1093;64432;-80
2021/07/14 10:54:12;;;;;;;20.20;15.37;;;;;;;33.46;49.02;98402.41;124829;1093;64293;-79
2021/07/14 10:56:46;;;;;;;22.03;15.83;;;;;;;33.61;48.73;98407.23;124841;1090;64271;-79
2021/07/14 10:59:14;;;;;;;19.17;15.53;;;;;;;33.79;48.89;98405.97;124804;1090;64276;-79
2021/07/14 11:01:45;;;;;;;17.57;15.87;;;;;;;34.00;47.43;98404.13;124780;1091;64364;-79
2021/07/14 11:04:25;;;;;;;18.05;16.25;;;;;;;34.19;47.07;98404.52;124794;1092;64287;-79
2021/07/14 11:06:57;;;;;;;18.83;17.00;;;;;;;34.27;46.59;98406.75;124790;1090;64298;-79
2021/07/14 11:09:39;;;;;;;18.43;16.60;;;;;;;34.34;45.40;98403.71;124798;1090;64264;-78
2021/07/14 11:12:09;;;;;;;17.80;15.07;;;;;;;34.28;46.51;98405.64;124763;1090;64361;-79
2021/07/14 11:14:41;;;;;;;18.10;16.23;;;;;;;34.26;46.23;98405.92;124781;1090;64320;-80
2021/07/14 11:17:10;;;;;;;17.27;15.70;;;;;;;34.24;46.03;98402.59;124832;1091;64329;-78
2021/07/14 11:19:50;;;;;;;18.10;16.33;;;;;;;34.23;46.56;98409.23;124821;1090;64252;-78
2021/07/14 11:22:44;;;;;;;18.57;16.23;;;;;;;34.18;46.09;98402.83;124846;1091;64298;-79
2021/07/14 11:25:20;;;;;;;18.13;16.37;;;;;;;34.15;46.73;98404.20;124816;1090;64338;-79
2021/07/14 11:28:00;;;;;;;17.00;15.60;;;;;;;34.05;45.39;98402.22;124791;1093;64265;-79
2021/07/14 11:30:37;;;;;;;17.63;16.03;;;;;;;34.07;45.53;98401.96;124891;1090;64294;-81
2021/07/14 11:33:06;;;;;;;17.57;15.67;;;;;;;33.99;44.63;98407.98;124851;1091;64267;-79
2021/07/14 11:35:36;;;;;;;18.30;16.50;;;;;;;33.89;45.65;98394.97;124867;1090;64265;-78